Main page
METAR-TAF:

METAR-TAF

Airports :

Caen – Carpiquet Airport

Caen, France

latitude: 49-11N, longitude: 000-27W, elevation: 78 m

Current weather observation

The report was made 39 minutes ago, at 19:30 UTC
Wind 13 kt from the Southwest
Temperature 6°C
Humidity 87%
Pressure 1027 hPa
Visibility 10 km or more
Scattered clouds at a height of 3400 ft
Overcast at a height of 4300 ft

METAR: LFRK 291930Z AUTO 23013KT 9999 SCT034 OVC043 06/04 Q1027 TEMPO 4000 RA BKN007

Time: 21:09 (20:09 UTC)

Forecast

The report was made 6 hours and 9 minutes ago, at 14:00 UTC
Forecast valid from 29 at 15 UTC to 29 at 24 UTC
Wind 10 kt from the West/Southwest
Visibility 10 km or more
Overcast at a height of 2500 ft
Temporary
from 29 at 15 UTC to 29 at 24 UTC
Broken clouds at a height of 1200 ft
Probability 40% :
Temporary
from 29 at 15 UTC to 29 at 24 UTC
Visibility: 4000 m
Broken clouds at a height of 700 ft
rain

TAF: LFRK 291400Z 2915/2924 24010KT 9999 OVC025 TEMPO 2915/2924 BKN012 PROB40 TEMPO 2915/2924 4000 RA BKN007

Weather observations and forecasts of more than 4000 airports (METAR and TAF reports).

The available stations are represented by yellow and red dots on the map.

Hover mouse over dot to see the name of the station.

Then click to see weather observations and forecasts.

To change the map : click on the green buttons with a black cross to zoom in, on the green button with a dash to zoom out, or on the green arrows for adjacent maps.


METAR-TAF: